sensor_id;sensor_type;location;lat;lon;timestamp;pressure;altitude;pressure_sealevel;temperature;humidity
6387;BME280;3226;42.162;24.756;2023-05-19T00:00:13;99673.63;;;13.75;83.97
6387;BME280;3226;42.162;24.756;2023-05-19T00:02:41;99679.41;;;13.79;83.46
6387;BME280;3226;42.162;24.756;2023-05-19T00:05:11;99676.06;;;13.86;82.72
6387;BME280;3226;42.162;24.756;2023-05-19T00:07:42;99676.91;;;13.87;82.09
6387;BME280;3226;42.162;24.756;2023-05-19T00:10:11;99663.38;;;14.00;81.64
6387;BME280;3226;42.162;24.756;2023-05-19T00:12:40;99663.16;;;13.93;81.85
6387;BME280;3226;42.162;24.756;2023-05-19T00:15:12;99671.78;;;13.85;82.92
6387;BME280;3226;42.162;24.756;2023-05-19T00:17:40;99665.53;;;13.86;82.77
6387;BME280;3226;42.162;24.756;2023-05-19T00:20:09;99661.09;;;13.87;82.45
6387;BME280;3226;42.162;24.756;2023-05-19T00:22:38;99662.91;;;13.86;82.38
6387;BME280;3226;42.162;24.756;2023-05-19T00:25:06;99672.03;;;13.92;82.01
6387;BME280;3226;42.162;24.756;2023-05-19T00:27:34;99666.03;;;14.00;81.24
6387;BME280;3226;42.162;24.756;2023-05-19T00:30:03;99650.97;;;13.92;81.10
6387;BME280;3226;42.162;24.756;2023-05-19T00:32:33;99646.81;;;13.90;81.67
6387;BME280;3226;42.162;24.756;2023-05-19T00:35:01;99663.97;;;14.12;80.39
6387;BME280;3226;42.162;24.756;2023-05-19T00:37:29;99657.28;;;13.99;80.85
6387;BME280;3226;42.162;24.756;2023-05-19T00:39:57;99665.25;;;14.08;79.72
6387;BME280;3226;42.162;24.756;2023-05-19T00:42:25;99658.63;;;14.03;80.76
6387;BME280;3226;42.162;24.756;2023-05-19T00:44:53;99650.38;;;13.98;79.95
6387;BME280;3226;42.162;24.756;2023-05-19T00:47:21;99661.06;;;13.97;80.77
6387;BME280;3226;42.162;24.756;2023-05-19T00:49:50;99652.63;;;13.93;81.39
6387;BME280;3226;42.162;24.756;2023-05-19T00:52:18;99651.69;;;13.84;80.37
6387;BME280;3226;42.162;24.756;2023-05-19T00:54:48;99649.34;;;13.81;81.33
6387;BME280;3226;42.162;24.756;2023-05-19T00:57:17;99655.97;;;13.85;80.90
6387;BME280;3226;42.162;24.756;2023-05-19T00:59:45;99646.81;;;13.90;80.95
6387;BME280;3226;42.162;24.756;2023-05-19T01:02:13;99643.78;;;13.84;81.10
6387;BME280;3226;42.162;24.756;2023-05-19T01:04:42;99649.44;;;13.90;80.10
6387;BME280;3226;42.162;24.756;2023-05-19T01:07:14;99613.09;;;13.75;80.25
6387;BME280;3226;42.162;24.756;2023-05-19T01:09:42;99647.91;;;13.97;80.13
6387;BME280;3226;42.162;24.756;2023-05-19T01:12:10;99644.84;;;13.92;79.87
6387;BME280;3226;42.162;24.756;2023-05-19T01:14:38;99643.13;;;13.82;80.67
6387;BME280;3226;42.162;24.756;2023-05-19T01:17:10;99642.81;;;13.85;80.56
6387;BME280;3226;42.162;24.756;2023-05-19T01:19:55;99642.44;;;13.80;80.55
6387;BME280;3226;42.162;24.756;2023-05-19T01:22:39;99653.72;;;13.91;81.08
6387;BME280;3226;42.162;24.756;2023-05-19T01:25:49;99646.59;;;13.83;80.56
6387;BME280;3226;42.162;24.756;2023-05-19T01:31:26;99654.91;;;13.78;80.93
6387;BME280;3226;42.162;24.756;2023-05-19T01:33:55;99649.91;;;13.85;80.72
6387;BME280;3226;42.162;24.756;2023-05-19T01:36:25;99659.59;;;13.84;81.21
6387;BME280;3226;42.162;24.756;2023-05-19T01:38:55;99653.22;;;13.87;80.52
6387;BME280;3226;42.162;24.756;2023-05-19T01:41:25;99659.84;;;13.91;80.37
6387;BME280;3226;42.162;24.756;2023-05-19T01:43:54;99652.38;;;13.86;81.11
6387;BME280;3226;42.162;24.756;2023-05-19T01:46:23;99658.31;;;13.88;79.98
6387;BME280;3226;42.162;24.756;2023-05-19T01:48:53;99652.53;;;13.85;79.45
6387;BME280;3226;42.162;24.756;2023-05-19T01:51:21;99657.50;;;13.88;79.74
6387;BME280;3226;42.162;24.756;2023-05-19T01:53:49;99656.38;;;13.91;79.08
6387;BME280;3226;42.162;24.756;2023-05-19T01:56:25;99664.25;;;13.91;79.21
6387;BME280;3226;42.162;24.756;2023-05-19T01:59:04;99653.34;;;13.85;79.33
6387;BME280;3226;42.162;24.756;2023-05-19T02:01:40;99658.78;;;13.84;79.47
6387;BME280;3226;42.162;24.756;2023-05-19T02:04:18;99652.66;;;13.83;78.40
6387;BME280;3226;42.162;24.756;2023-05-19T02:06:55;99653.34;;;13.85;78.51
6387;BME280;3226;42.162;24.756;2023-05-19T02:09:35;99660.72;;;13.82;78.89
6387;BME280;3226;42.162;24.756;2023-05-19T02:12:10;99654.06;;;13.78;78.93
6387;BME280;3226;42.162;24.756;2023-05-19T02:14:42;99656.28;;;13.82;79.50
6387;BME280;3226;42.162;24.756;2023-05-19T02:17:13;99639.06;;;13.70;78.66
6387;BME280;3226;42.162;24.756;2023-05-19T02:19:44;99574.81;;;13.35;77.60
6387;BME280;3226;42.162;24.756;2023-05-19T02:22:11;99667.88;;;13.90;78.05
6387;BME280;3226;42.162;24.756;2023-05-19T02:24:39;99664.13;;;13.92;77.75
6387;BME280;3226;42.162;24.756;2023-05-19T02:27:08;99671.59;;;13.97;77.53
6387;BME280;3226;42.162;24.756;2023-05-19T02:29:36;99672.53;;;13.96;77.43
6387;BME280;3226;42.162;24.756;2023-05-19T02:32:05;99665.91;;;13.92;77.92
6387;BME280;3226;42.162;24.756;2023-05-19T02:34:33;99651.75;;;13.74;77.74
6387;BME280;3226;42.162;24.756;2023-05-19T02:37:03;99650.00;;;13.65;78.80
6387;BME280;3226;42.162;24.756;2023-05-19T02:39:33;99671.13;;;13.73;79.35
6387;BME280;3226;42.162;24.756;2023-05-19T02:42:01;99666.25;;;13.79;79.11
6387;BME280;3226;42.162;24.756;2023-05-19T02:44:29;99653.06;;;13.61;78.93
6387;BME280;3226;42.162;24.756;2023-05-19T02:46:57;99669.50;;;13.72;79.62
6387;BME280;3226;42.162;24.756;2023-05-19T02:49:26;99667.69;;;13.73;78.88
6387;BME280;3226;42.162;24.756;2023-05-19T02:51:56;99663.13;;;13.75;79.25
6387;BME280;3226;42.162;24.756;2023-05-19T02:54:25;99662.44;;;13.73;79.34
6387;BME280;3226;42.162;24.756;2023-05-19T02:56:53;99649.88;;;13.67;78.81
6387;BME280;3226;42.162;24.756;2023-05-19T02:59:21;99673.03;;;13.81;78.85
6387;BME280;3226;42.162;24.756;2023-05-19T03:01:54;99657.31;;;13.71;79.01
6387;BME280;3226;42.162;24.756;2023-05-19T03:04:22;99673.63;;;13.75;79.03
6387;BME280;3226;42.162;24.756;2023-05-19T03:06:50;99669.88;;;13.78;78.87
6387;BME280;3226;42.162;24.756;2023-05-19T03:09:19;99677.94;;;13.76;79.57
6387;BME280;3226;42.162;24.756;2023-05-19T03:11:49;99683.63;;;13.71;80.12
6387;BME280;3226;42.162;24.756;2023-05-19T03:14:17;99681.84;;;13.72;79.69
6387;BME280;3226;42.162;24.756;2023-05-19T03:16:49;99686.25;;;13.71;79.75
6387;BME280;3226;42.162;24.756;2023-05-19T03:19:18;99687.91;;;13.72;79.70
6387;BME280;3226;42.162;24.756;2023-05-19T03:21:46;99681.28;;;13.68;79.97
6387;BME280;3226;42.162;24.756;2023-05-19T03:24:15;99678.53;;;13.70;80.25
6387;BME280;3226;42.162;24.756;2023-05-19T03:26:43;99695.13;;;13.70;80.43
6387;BME280;3226;42.162;24.756;2023-05-19T03:29:12;99687.63;;;13.76;80.39
6387;BME280;3226;42.162;24.756;2023-05-19T03:31:40;99697.63;;;13.72;81.04
6387;BME280;3226;42.162;24.756;2023-05-19T03:34:08;99695.09;;;13.80;80.30
6387;BME280;3226;42.162;24.756;2023-05-19T03:36:36;99693.28;;;13.81;80.55
6387;BME280;3226;42.162;24.756;2023-05-19T03:39:05;99698.09;;;13.85;80.09
6387;BME280;3226;42.162;24.756;2023-05-19T03:41:33;99702.97;;;13.80;80.07
6387;BME280;3226;42.162;24.756;2023-05-19T03:44:01;99704.53;;;13.73;81.68
6387;BME280;3226;42.162;24.756;2023-05-19T03:46:30;99710.63;;;13.73;81.38
6387;BME280;3226;42.162;24.756;2023-05-19T03:48:58;99700.63;;;13.77;81.10
6387;BME280;3226;42.162;24.756;2023-05-19T03:51:26;99705.91;;;13.77;80.86
6387;BME280;3226;42.162;24.756;2023-05-19T03:53:55;99702.25;;;13.88;79.95
6387;BME280;3226;42.162;24.756;2023-05-19T03:56:23;99703.22;;;13.87;80.13
6387;BME280;3226;42.162;24.756;2023-05-19T03:58:53;99697.66;;;13.90;79.87
6387;BME280;3226;42.162;24.756;2023-05-19T04:01:21;99703.75;;;13.91;80.05
6387;BME280;3226;42.162;24.756;2023-05-19T04:03:50;99709.69;;;13.93;80.52
6387;BME280;3226;42.162;24.756;2023-05-19T04:06:18;99722.41;;;13.97;79.66
6387;BME280;3226;42.162;24.756;2023-05-19T04:08:46;99717.03;;;13.99;79.48
6387;BME280;3226;42.162;24.756;2023-05-19T04:11:14;99721.00;;;14.03;79.67
6387;BME280;3226;42.162;24.756;2023-05-19T04:13:42;99724.03;;;14.08;79.43
6387;BME280;3226;42.162;24.756;2023-05-19T04:16:10;99716.13;;;14.08;79.53
6387;BME280;3226;42.162;24.756;2023-05-19T04:18:39;99720.56;;;14.08;79.36
6387;BME280;3226;42.162;24.756;2023-05-19T04:21:08;99709.63;;;14.02;79.24
6387;BME280;3226;42.162;24.756;2023-05-19T04:23:36;99718.81;;;13.98;79.85
6387;BME280;3226;42.162;24.756;2023-05-19T04:26:04;99708.97;;;14.00;80.07
6387;BME280;3226;42.162;24.756;2023-05-19T04:28:35;99720.72;;;14.06;79.33
6387;BME280;3226;42.162;24.756;2023-05-19T04:31:05;99727.19;;;14.12;79.15
6387;BME280;3226;42.162;24.756;2023-05-19T04:33:36;99722.50;;;14.06;80.10
6387;BME280;3226;42.162;24.756;2023-05-19T04:36:05;99723.81;;;14.20;79.37
6387;BME280;3226;42.162;24.756;2023-05-19T04:38:38;99725.72;;;14.27;78.64
6387;BME280;3226;42.162;24.756;2023-05-19T04:41:06;99741.94;;;14.23;78.76
6387;BME280;3226;42.162;24.756;2023-05-19T04:43:36;99735.88;;;14.22;78.42
6387;BME280;3226;42.162;24.756;2023-05-19T04:46:07;99731.91;;;14.36;77.74
6387;BME280;3226;42.162;24.756;2023-05-19T04:48:39;99743.63;;;14.42;77.57
6387;BME280;3226;42.162;24.756;2023-05-19T04:51:08;99740.09;;;14.51;77.56
6387;BME280;3226;42.162;24.756;2023-05-19T04:53:41;99743.00;;;14.66;77.19
6387;BME280;3226;42.162;24.756;2023-05-19T04:56:10;99747.34;;;14.85;75.86
6387;BME280;3226;42.162;24.756;2023-05-19T04:58:41;99746.34;;;15.05;75.47
6387;BME280;3226;42.162;24.756;2023-05-19T05:01:10;99760.25;;;15.15;75.13
6387;BME280;3226;42.162;24.756;2023-05-19T05:03:41;99745.16;;;15.25;74.71
6387;BME280;3226;42.162;24.756;2023-05-19T05:06:09;99758.53;;;15.58;73.20
6387;BME280;3226;42.162;24.756;2023-05-19T05:08:38;99767.53;;;15.74;72.77
6387;BME280;3226;42.162;24.756;2023-05-19T05:11:09;99760.41;;;16.01;70.98
6387;BME280;3226;42.162;24.756;2023-05-19T05:13:37;99753.88;;;16.13;70.80
6387;BME280;3226;42.162;24.756;2023-05-19T05:16:07;99764.44;;;16.22;70.22
6387;BME280;3226;42.162;24.756;2023-05-19T05:18:35;99753.22;;;16.28;70.12
6387;BME280;3226;42.162;24.756;2023-05-19T05:21:05;99759.88;;;16.48;69.42
6387;BME280;3226;42.162;24.756;2023-05-19T05:23:34;99763.84;;;16.44;70.21
6387;BME280;3226;42.162;24.756;2023-05-19T05:26:05;99766.31;;;16.54;70.16
6387;BME280;3226;42.162;24.756;2023-05-19T05:28:37;99763.19;;;16.51;70.13
6387;BME280;3226;42.162;24.756;2023-05-19T05:31:05;99770.47;;;16.65;69.04
6387;BME280;3226;42.162;24.756;2023-05-19T05:33:33;99766.69;;;16.68;69.05
6387;BME280;3226;42.162;24.756;2023-05-19T05:36:01;99765.84;;;16.75;69.37
6387;BME280;3226;42.162;24.756;2023-05-19T05:38:30;99767.34;;;16.78;69.17
6387;BME280;3226;42.162;24.756;2023-05-19T05:40:58;99772.47;;;16.71;68.75
6387;BME280;3226;42.162;24.756;2023-05-19T05:43:26;99781.38;;;16.79;69.18
6387;BME280;3226;42.162;24.756;2023-05-19T05:45:55;99779.09;;;16.84;69.41
6387;BME280;3226;42.162;24.756;2023-05-19T05:48:24;99782.75;;;16.99;68.17
6387;BME280;3226;42.162;24.756;2023-05-19T05:50:52;99779.75;;;16.94;68.41
6387;BME280;3226;42.162;24.756;2023-05-19T05:53:23;99779.94;;;17.17;68.71
6387;BME280;3226;42.162;24.756;2023-05-19T05:55:52;99784.75;;;17.22;69.59
6387;BME280;3226;42.162;24.756;2023-05-19T05:58:20;99792.34;;;17.25;67.82
6387;BME280;3226;42.162;24.756;2023-05-19T06:00:50;99783.25;;;17.19;67.53
6387;BME280;3226;42.162;24.756;2023-05-19T06:03:20;99797.59;;;17.42;67.33
6387;BME280;3226;42.162;24.756;2023-05-19T06:05:50;99794.94;;;17.50;66.80
6387;BME280;3226;42.162;24.756;2023-05-19T06:08:18;99800.56;;;17.55;66.25
6387;BME280;3226;42.162;24.756;2023-05-19T06:10:46;99798.91;;;17.54;67.82
6387;BME280;3226;42.162;24.756;2023-05-19T06:13:14;99809.13;;;17.66;66.54
6387;BME280;3226;42.162;24.756;2023-05-19T06:15:47;99808.31;;;17.73;67.33
6387;BME280;3226;42.162;24.756;2023-05-19T06:18:16;99808.28;;;17.82;65.70
6387;BME280;3226;42.162;24.756;2023-05-19T06:20:45;99814.09;;;17.69;67.00
6387;BME280;3226;42.162;24.756;2023-05-19T06:23:13;99816.25;;;17.73;67.24
6387;BME280;3226;42.162;24.756;2023-05-19T06:25:41;99823.22;;;17.58;67.27
6387;BME280;3226;42.162;24.756;2023-05-19T06:28:09;99815.47;;;17.40;68.83
6387;BME280;3226;42.162;24.756;2023-05-19T06:30:37;99818.44;;;17.45;68.24
6387;BME280;3226;42.162;24.756;2023-05-19T06:33:05;99819.28;;;17.45;68.63
6387;BME280;3226;42.162;24.756;2023-05-19T06:35:33;99820.75;;;17.40;69.38
6387;BME280;3226;42.162;24.756;2023-05-19T06:38:03;99821.03;;;17.70;68.25
6387;BME280;3226;42.162;24.756;2023-05-19T06:40:31;99821.81;;;18.03;66.73
6387;BME280;3226;42.162;24.756;2023-05-19T06:42:59;99819.47;;;18.40;65.73
6387;BME280;3226;42.162;24.756;2023-05-19T06:45:27;99824.47;;;18.35;66.44
6387;BME280;3226;42.162;24.756;2023-05-19T06:47:55;99803.69;;;18.15;66.92
6387;BME280;3226;42.162;24.756;2023-05-19T06:50:24;99828.19;;;18.17;66.72
6387;BME280;3226;42.162;24.756;2023-05-19T06:52:52;99820.22;;;18.26;67.03
6387;BME280;3226;42.162;24.756;2023-05-19T06:55:21;99808.53;;;18.43;66.50
6387;BME280;3226;42.162;24.756;2023-05-19T06:57:49;99825.66;;;18.64;65.86
6387;BME280;3226;42.162;24.756;2023-05-19T07:00:17;99824.03;;;18.55;66.97
6387;BME280;3226;42.162;24.756;2023-05-19T07:02:57;99823.00;;;18.64;66.82
6387;BME280;3226;42.162;24.756;2023-05-19T07:05:25;99813.91;;;18.58;67.34
6387;BME280;3226;42.162;24.756;2023-05-19T07:07:54;99820.06;;;18.59;67.19
6387;BME280;3226;42.162;24.756;2023-05-19T07:10:23;99822.72;;;18.59;67.08
6387;BME280;3226;42.162;24.756;2023-05-19T07:12:51;99816.06;;;18.55;67.25
6387;BME280;3226;42.162;24.756;2023-05-19T07:15:19;99807.75;;;18.66;66.19
6387;BME280;3226;42.162;24.756;2023-05-19T07:17:47;99813.34;;;18.71;65.99
6387;BME280;3226;42.162;24.756;2023-05-19T07:20:15;99799.72;;;18.74;65.84
6387;BME280;3226;42.162;24.756;2023-05-19T07:22:43;99800.13;;;18.86;66.83
6387;BME280;3226;42.162;24.756;2023-05-19T07:25:11;99797.34;;;18.79;67.28
6387;BME280;3226;42.162;24.756;2023-05-19T07:27:40;99806.38;;;18.70;67.94
6387;BME280;3226;42.162;24.756;2023-05-19T07:30:09;99810.25;;;18.83;66.84
6387;BME280;3226;42.162;24.756;2023-05-19T07:32:37;99812.41;;;19.11;65.49
6387;BME280;3226;42.162;24.756;2023-05-19T07:35:06;99813.88;;;19.13;65.30
6387;BME280;3226;42.162;24.756;2023-05-19T07:37:34;99816.91;;;19.25;64.15
6387;BME280;3226;42.162;24.756;2023-05-19T07:40:02;99810.19;;;19.38;63.53
6387;BME280;3226;42.162;24.756;2023-05-19T07:42:30;99817.53;;;19.50;64.00
6387;BME280;3226;42.162;24.756;2023-05-19T07:45:00;99810.91;;;19.61;64.32
6387;BME280;3226;42.162;24.756;2023-05-19T07:47:29;99818.72;;;19.78;63.67
6387;BME280;3226;42.162;24.756;2023-05-19T07:49:57;99799.94;;;19.49;62.79
6387;BME280;3226;42.162;24.756;2023-05-19T07:52:25;99818.56;;;19.64;62.20
6387;BME280;3226;42.162;24.756;2023-05-19T07:54:53;99818.34;;;19.51;62.15
6387;BME280;3226;42.162;24.756;2023-05-19T07:57:21;99827.53;;;19.63;61.18
6387;BME280;3226;42.162;24.756;2023-05-19T07:59:49;99825.53;;;19.81;60.62
6387;BME280;3226;42.162;24.756;2023-05-19T08:02:18;99813.78;;;19.75;60.98
6387;BME280;3226;42.162;24.756;2023-05-19T08:04:46;99821.28;;;19.86;61.51
6387;BME280;3226;42.162;24.756;2023-05-19T08:07:15;99833.31;;;19.97;61.33
6387;BME280;3226;42.162;24.756;2023-05-19T08:09:43;99825.59;;;19.87;60.07
6387;BME280;3226;42.162;24.756;2023-05-19T08:12:10;99834.88;;;19.91;60.12
6387;BME280;3226;42.162;24.756;2023-05-19T08:14:38;99831.69;;;19.96;60.21
6387;BME280;3226;42.162;24.756;2023-05-19T08:17:06;99843.59;;;20.00;58.88
6387;BME280;3226;42.162;24.756;2023-05-19T08:19:36;99844.78;;;19.98;59.22
6387;BME280;3226;42.162;24.756;2023-05-19T08:22:04;99843.69;;;20.07;57.37
6387;BME280;3226;42.162;24.756;2023-05-19T08:24:32;99842.94;;;20.13;58.45
6387;BME280;3226;42.162;24.756;2023-05-19T08:27:00;99840.19;;;20.21;59.18
6387;BME280;3226;42.162;24.756;2023-05-19T08:29:28;99835.75;;;20.29;57.90
6387;BME280;3226;42.162;24.756;2023-05-19T08:31:56;99837.88;;;20.33;58.54
6387;BME280;3226;42.162;24.756;2023-05-19T08:34:25;99845.31;;;20.38;58.31
6387;BME280;3226;42.162;24.756;2023-05-19T08:36:54;99842.19;;;20.34;57.19
6387;BME280;3226;42.162;24.756;2023-05-19T08:39:23;99840.03;;;20.45;58.01
6387;BME280;3226;42.162;24.756;2023-05-19T08:41:52;99840.59;;;20.55;56.94
6387;BME280;3226;42.162;24.756;2023-05-19T08:44:21;99841.72;;;20.68;55.32
6387;BME280;3226;42.162;24.756;2023-05-19T08:46:50;99839.44;;;20.79;54.96
6387;BME280;3226;42.162;24.756;2023-05-19T08:49:22;99839.38;;;20.94;55.59
6387;BME280;3226;42.162;24.756;2023-05-19T08:51:59;99834.16;;;21.08;54.69
6387;BME280;3226;42.162;24.756;2023-05-19T08:54:34;99830.53;;;21.16;53.89
6387;BME280;3226;42.162;24.756;2023-05-19T08:57:06;99809.25;;;20.94;55.13
6387;BME280;3226;42.162;24.756;2023-05-19T08:59:35;99832.03;;;21.25;53.57
6387;BME280;3226;42.162;24.756;2023-05-19T09:04:32;99828.03;;;21.07;53.00
6387;BME280;3226;42.162;24.756;2023-05-19T09:07:03;99812.78;;;21.23;52.72
6387;BME280;3226;42.162;24.756;2023-05-19T09:09:31;99829.97;;;21.49;52.27
6387;BME280;3226;42.162;24.756;2023-05-19T09:11:59;99806.28;;;21.61;51.17
6387;BME280;3226;42.162;24.756;2023-05-19T09:14:27;99820.81;;;21.58;52.14
6387;BME280;3226;42.162;24.756;2023-05-19T09:16:56;99831.09;;;21.33;50.82
6387;BME280;3226;42.162;24.756;2023-05-19T09:19:27;99827.19;;;21.35;50.67
6387;BME280;3226;42.162;24.756;2023-05-19T09:21:59;99793.19;;;21.31;50.11
6387;BME280;3226;42.162;24.756;2023-05-19T09:24:30;99814.50;;;21.09;50.68
6387;BME280;3226;42.162;24.756;2023-05-19T09:27:00;99817.81;;;21.40;51.38
6387;BME280;3226;42.162;24.756;2023-05-19T09:29:28;99819.03;;;21.65;51.05
6387;BME280;3226;42.162;24.756;2023-05-19T09:31:56;99814.22;;;21.83;49.36
6387;BME280;3226;42.162;24.756;2023-05-19T09:34:27;99816.25;;;21.80;49.03
6387;BME280;3226;42.162;24.756;2023-05-19T09:36:55;99817.53;;;21.91;47.97
6387;BME280;3226;42.162;24.756;2023-05-19T09:39:23;99821.97;;;22.19;48.48
6387;BME280;3226;42.162;24.756;2023-05-19T09:41:53;99817.00;;;22.51;48.16
6387;BME280;3226;42.162;24.756;2023-05-19T09:44:24;99813.34;;;23.06;45.75
6387;BME280;3226;42.162;24.756;2023-05-19T09:46:55;99804.53;;;23.53;45.72
6387;BME280;3226;42.162;24.756;2023-05-19T09:49:25;99815.94;;;23.87;45.49
6387;BME280;3226;42.162;24.756;2023-05-19T09:51:55;99811.69;;;23.59;45.75
6387;BME280;3226;42.162;24.756;2023-05-19T09:54:25;99816.19;;;22.71;47.13
6387;BME280;3226;42.162;24.756;2023-05-19T09:57:00;99814.81;;;22.27;47.73
6387;BME280;3226;42.162;24.756;2023-05-19T09:59:30;99807.09;;;21.97;47.95
6387;BME280;3226;42.162;24.756;2023-05-19T10:02:00;99812.03;;;22.00;50.15
6387;BME280;3226;42.162;24.756;2023-05-19T10:04:29;99811.16;;;21.86;50.46
6387;BME280;3226;42.162;24.756;2023-05-19T10:06:58;99789.03;;;21.57;50.72
6387;BME280;3226;42.162;24.756;2023-05-19T10:09:28;99808.75;;;21.62;51.12
6387;BME280;3226;42.162;24.756;2023-05-19T10:11:58;99814.09;;;21.05;51.07
6387;BME280;3226;42.162;24.756;2023-05-19T10:14:27;99804.81;;;21.01;50.02
6387;BME280;3226;42.162;24.756;2023-05-19T10:16:57;99795.38;;;20.99;50.09
6387;BME280;3226;42.162;24.756;2023-05-19T10:19:26;99800.66;;;21.20;50.92
6387;BME280;3226;42.162;24.756;2023-05-19T10:21:55;99791.31;;;21.31;52.89
6387;BME280;3226;42.162;24.756;2023-05-19T10:24:23;99792.97;;;21.32;52.85
6387;BME280;3226;42.162;24.756;2023-05-19T10:26:54;99781.53;;;21.38;54.23
6387;BME280;3226;42.162;24.756;2023-05-19T10:29:30;99780.03;;;21.58;53.10
6387;BME280;3226;42.162;24.756;2023-05-19T10:32:03;99779.97;;;21.79;51.36
6387;BME280;3226;42.162;24.756;2023-05-19T10:35:08;99788.47;;;22.03;50.29
6387;BME280;3226;42.162;24.756;2023-05-19T10:37:44;99783.06;;;22.38;49.25
6387;BME280;3226;42.162;24.756;2023-05-19T10:40:20;99783.13;;;22.72;50.28
6387;BME280;3226;42.162;24.756;2023-05-19T10:43:01;99783.78;;;23.01;50.30
6387;BME280;3226;42.162;24.756;2023-05-19T10:45:39;99782.75;;;22.89;49.32
6387;BME280;3226;42.162;24.756;2023-05-19T10:48:10;99779.88;;;22.63;47.57
6387;BME280;3226;42.162;24.756;2023-05-19T10:50:38;99789.69;;;22.49;48.03
6387;BME280;3226;42.162;24.756;2023-05-19T10:53:13;99792.25;;;22.22;48.31
6387;BME280;3226;42.162;24.756;2023-05-19T10:55:44;99795.44;;;21.34;49.89
6387;BME280;3226;42.162;24.756;2023-05-19T10:58:13;99791.69;;;21.21;51.98
6387;BME280;3226;42.162;24.756;2023-05-19T11:00:42;99790.63;;;20.94;53.81
6387;BME280;3226;42.162;24.756;2023-05-19T11:03:12;99790.19;;;20.90;54.78
6387;BME280;3226;42.162;24.756;2023-05-19T11:05:40;99775.63;;;20.86;53.45
6387;BME280;3226;42.162;24.756;2023-05-19T11:08:11;99783.81;;;21.13;52.63
6387;BME280;3226;42.162;24.756;2023-05-19T11:10:42;99784.97;;;21.61;50.79
6387;BME280;3226;42.162;24.756;2023-05-19T11:13:18;99794.13;;;21.80;49.59
6387;BME280;3226;42.162;24.756;2023-05-19T11:15:51;99791.88;;;22.32;50.13
6387;BME280;3226;42.162;24.756;2023-05-19T11:18:19;99791.97;;;22.66;49.98
6387;BME280;3226;42.162;24.756;2023-05-19T11:20:54;99793.59;;;22.80;49.14
6387;BME280;3226;42.162;24.756;2023-05-19T11:23:24;99787.84;;;22.70;45.95
6387;BME280;3226;42.162;24.756;2023-05-19T11:25:52;99781.69;;;22.49;46.59
6387;BME280;3226;42.162;24.756;2023-05-19T11:28:22;99767.63;;;22.20;46.45
6387;BME280;3226;42.162;24.756;2023-05-19T11:30:55;99782.75;;;22.06;48.53
6387;BME280;3226;42.162;24.756;2023-05-19T11:33:24;99777.34;;;21.86;49.89
6387;BME280;3226;42.162;24.756;2023-05-19T11:35:54;99787.31;;;21.42;49.62
6387;BME280;3226;42.162;24.756;2023-05-19T11:38:25;99788.94;;;20.86;50.64
6387;BME280;3226;42.162;24.756;2023-05-19T11:40:54;99795.06;;;20.87;50.57
6387;BME280;3226;42.162;24.756;2023-05-19T11:43:23;99774.16;;;20.84;50.25
6387;BME280;3226;42.162;24.756;2023-05-19T11:45:54;99781.38;;;20.90;48.91
6387;BME280;3226;42.162;24.756;2023-05-19T11:48:23;99770.56;;;20.91;49.51
6387;BME280;3226;42.162;24.756;2023-05-19T11:50:52;99762.03;;;21.31;50.58
6387;BME280;3226;42.162;24.756;2023-05-19T11:53:22;99773.47;;;21.60;48.29
6387;BME280;3226;42.162;24.756;2023-05-19T11:55:50;99770.84;;;22.02;48.06
6387;BME280;3226;42.162;24.756;2023-05-19T11:58:24;99768.28;;;22.43;47.36
6387;BME280;3226;42.162;24.756;2023-05-19T12:00:54;99765.88;;;22.61;46.84
6387;BME280;3226;42.162;24.756;2023-05-19T12:03:22;99766.53;;;22.77;45.08
6387;BME280;3226;42.162;24.756;2023-05-19T12:05:55;99768.16;;;22.98;45.19
6387;BME280;3226;42.162;24.756;2023-05-19T12:08:23;99758.69;;;23.16;44.19
6387;BME280;3226;42.162;24.756;2023-05-19T12:10:52;99768.38;;;23.30;44.29
6387;BME280;3226;42.162;24.756;2023-05-19T12:13:21;99770.84;;;23.25;45.00
6387;BME280;3226;42.162;24.756;2023-05-19T12:15:49;99767.72;;;23.42;45.10
6387;BME280;3226;42.162;24.756;2023-05-19T12:18:19;99760.50;;;23.62;44.62
6387;BME280;3226;42.162;24.756;2023-05-19T12:20:47;99753.03;;;23.78;44.49
6387;BME280;3226;42.162;24.756;2023-05-19T12:23:16;99762.88;;;23.84;44.94
6387;BME280;3226;42.162;24.756;2023-05-19T12:25:44;99755.44;;;23.93;44.25
6387;BME280;3226;42.162;24.756;2023-05-19T12:28:14;99757.50;;;23.97;42.99
6387;BME280;3226;42.162;24.756;2023-05-19T12:30:46;99756.66;;;24.04;42.85
6387;BME280;3226;42.162;24.756;2023-05-19T12:33:14;99750.75;;;23.88;43.85
6387;BME280;3226;42.162;24.756;2023-05-19T12:35:44;99756.97;;;23.68;43.82
6387;BME280;3226;42.162;24.756;2023-05-19T12:38:13;99752.84;;;23.66;44.00
6387;BME280;3226;42.162;24.756;2023-05-19T12:40:41;99754.72;;;23.72;43.44
6387;BME280;3226;42.162;24.756;2023-05-19T12:43:18;99752.38;;;23.89;43.12
6387;BME280;3226;42.162;24.756;2023-05-19T12:45:46;99746.44;;;23.87;43.70
6387;BME280;3226;42.162;24.756;2023-05-19T12:48:14;99748.63;;;23.97;43.58
6387;BME280;3226;42.162;24.756;2023-05-19T12:50:44;99736.78;;;23.79;43.69
6387;BME280;3226;42.162;24.756;2023-05-19T12:53:12;99741.31;;;23.79;42.89
6387;BME280;3226;42.162;24.756;2023-05-19T12:55:43;99725.00;;;24.01;43.13
6387;BME280;3226;42.162;24.756;2023-05-19T12:58:14;99696.25;;;23.30;43.11
6387;BME280;3226;42.162;24.756;2023-05-19T13:00:44;99730.50;;;23.53;43.01
6387;BME280;3226;42.162;24.756;2023-05-19T13:03:16;99736.75;;;23.86;42.73
6387;BME280;3226;42.162;24.756;2023-05-19T13:05:48;99735.00;;;24.12;42.17
6387;BME280;3226;42.162;24.756;2023-05-19T13:08:17;99723.00;;;24.21;41.65
6387;BME280;3226;42.162;24.756;2023-05-19T13:10:47;99707.41;;;24.18;40.89
6387;BME280;3226;42.162;24.756;2023-05-19T13:13:16;99737.06;;;24.17;41.22
6387;BME280;3226;42.162;24.756;2023-05-19T13:15:45;99737.19;;;24.29;41.13
6387;BME280;3226;42.162;24.756;2023-05-19T13:18:15;99739.16;;;24.08;40.75
6387;BME280;3226;42.162;24.756;2023-05-19T13:20:44;99739.38;;;23.41;42.42
6387;BME280;3226;42.162;24.756;2023-05-19T13:23:15;99723.34;;;23.20;44.08
6387;BME280;3226;42.162;24.756;2023-05-19T13:25:43;99723.16;;;23.22;44.07
6387;BME280;3226;42.162;24.756;2023-05-19T13:28:11;99738.56;;;23.33;44.97